Terminal Aerodrome Forecast
Issued by NWS Amarillo, TX

Home | Current Version | Previous Version | Text Only | Print | Product List | Glossary On
Versions: 1 2 3 4 5 6 7 8 9 10 11 12 13 14 15 16 17 18 19
000
FTUS44 KAMA 271100 RRA
TAFGUY
TAF
KGUY 271141Z 2712/2812 04016G24KT 5SM -RA BR OVC006
     FM271800 02018G28KT 6SM -RA BR OVC012
     FM280000 03010KT 6SM -RA BR OVC010
     FM280800 35008KT P6SM OVC010=

USA.gov is the U.S. government's official web portal to all federal, state and local government web resources and services.